MDT weather

Harrisburg International Airport
Harrisburg, Pennsylvania, United States

Public forecast

Using degrees Fahrenheit for public forecast. Weather courtesy of forecast.io.

Current aviation weather report (METAR) for Harrisburg International Airport

Retrieved 2019/10/20 01:56 UTC (34 minutes ago):

KMDT 200156Z 00000KT 10SM SCT150 OVC200 11/07 A3000 RMK AO2 SLP162 T01110072

Aviation forecast (TAF) for Harrisburg International Airport

Retrieved 2019-10-20 00:22 UTC (2 hours ago):

TAF KMDT 192320Z 2000/2024 VRB03KT P6SM OVC150 FM201200 VRB03KT P6SM -RA OVC070 FM201600 05008KT 3SM -RA BR OVC008 FM202000 03008KT P6SM OVC015